Brejinho de Nazare, Brazil
Current Conditions -  °F | °C
As of 3:00 PM on Monday 22 Dec 2014 (Local Time) from SBPJ Reporting Station
Few Clouds Few Clouds  
Wind Chill: 84°   Ceiling: Unl
Heat Index: 92°   Visibility: 6mi
Dew Point: 75°   Wind: 10mph
Humidity: 74%   Direction: 190°S
Pressure: 29.8"   Gusts: NA
Location:  11°S, 48.57°W
Report Text: SBPJ 221800Z 19009KT 9999 FEW025 29/24 Q1009
Loading
Personal Weather Stations






























Interactive Weather Map New forecast layout! Learn more

10-Day Weather Forecast

Advertisements
Track Severe Weather on mobile